createdAt,value
2018-05-15T00:02:26.881Z,97551.00
2018-05-15T00:04:55.176Z,97554.10
2018-05-15T00:07:23.523Z,97551.66
2018-05-15T00:09:52.592Z,97547.22
2018-05-15T00:12:21.616Z,97549.64
2018-05-15T00:14:49.930Z,97547.52
2018-05-15T00:17:18.226Z,97552.11
2018-05-15T00:19:47.043Z,97549.93
2018-05-15T00:22:15.380Z,97551.08
2018-05-15T00:24:43.984Z,97548.02
2018-05-15T00:27:12.299Z,97551.14
2018-05-15T00:29:42.591Z,97556.02
2018-05-15T00:32:10.907Z,97551.06
2018-05-15T00:34:39.734Z,97546.98
2018-05-15T00:37:08.239Z,97546.52
2018-05-15T00:39:36.891Z,97545.34
2018-05-15T00:42:06.259Z,97548.16
2018-05-15T00:44:34.629Z,97545.85
2018-05-15T00:47:02.932Z,97548.45
2018-05-15T00:49:31.230Z,97544.53
2018-05-15T00:51:59.579Z,97539.34
2018-05-15T00:54:27.894Z,97535.67
2018-05-15T00:56:56.194Z,97539.39
2018-05-15T00:59:24.915Z,97548.07
2018-05-15T01:01:54.546Z,97541.61
2018-05-15T01:04:22.878Z,97543.61
2018-05-15T01:06:51.685Z,97547.13
2018-05-15T01:09:19.978Z,97547.75
2018-05-15T01:11:48.658Z,97549.39
2018-05-15T01:14:16.986Z,97552.80
2018-05-15T01:16:45.300Z,97551.12
2018-05-15T01:19:13.635Z,97550.55
2018-05-15T01:21:42.700Z,97555.51
2018-05-15T01:24:11.779Z,97558.18
2018-05-15T01:26:40.111Z,97557.16
2018-05-15T01:29:08.411Z,97560.72
2018-05-15T01:31:36.723Z,97563.41
2018-05-15T01:34:05.066Z,97556.72
2018-05-15T01:36:33.363Z,97559.70
2018-05-15T01:39:02.051Z,97559.51
2018-05-15T01:41:31.019Z,97552.54
2018-05-15T01:43:59.331Z,97556.92
2018-05-15T01:46:27.706Z,97558.84
2018-05-15T01:48:56.661Z,97561.39
2018-05-15T01:51:24.970Z,97557.81
2018-05-15T01:53:53.322Z,97557.45
2018-05-15T01:56:21.622Z,97557.17
2018-05-15T01:58:49.924Z,97559.63
2018-05-15T02:01:18.267Z,97551.33
2018-05-15T02:03:46.671Z,97556.84
2018-05-15T02:06:15.939Z,97558.81
2018-05-15T02:08:44.275Z,97556.19
2018-05-15T02:11:12.574Z,97557.44
2018-05-15T02:13:41.843Z,97557.32
2018-05-15T02:16:10.176Z,97556.50
2018-05-15T02:18:38.490Z,97558.28
2018-05-15T02:21:07.535Z,97559.72
2018-05-15T02:23:36.567Z,97566.66
2018-05-15T02:26:05.740Z,97565.83
2018-05-15T02:28:34.089Z,97564.88
2018-05-15T02:31:02.761Z,97562.78
2018-05-15T02:33:31.187Z,97564.53
2018-05-15T02:35:59.495Z,97571.19
2018-05-15T02:38:27.799Z,97576.41
2018-05-15T02:40:56.207Z,97573.50
2018-05-15T02:43:24.510Z,97578.48
2018-05-15T02:45:53.422Z,97578.56
2018-05-15T02:48:21.743Z,97584.26
2018-05-15T02:50:50.130Z,97584.87
2018-05-15T02:53:18.512Z,97584.91
2018-05-15T02:55:47.063Z,97582.52
2018-05-15T02:58:15.543Z,97582.05
2018-05-15T03:00:44.763Z,97576.20
2018-05-15T03:03:13.066Z,97577.33
2018-05-15T03:05:42.136Z,97583.06
2018-05-15T03:08:10.613Z,97576.36
2018-05-15T03:10:38.930Z,97583.73
2018-05-15T03:13:07.234Z,97583.81
2018-05-15T03:15:36.275Z,97585.42
2018-05-15T03:18:05.375Z,97582.99
2018-05-15T03:20:33.871Z,97585.51
2018-05-15T03:23:02.207Z,97587.98
2018-05-15T03:25:31.127Z,97590.55
2018-05-15T03:27:59.427Z,97581.83
2018-05-15T03:30:27.755Z,97580.68
2018-05-15T03:32:56.070Z,97577.11
2018-05-15T03:35:24.363Z,97579.44
2018-05-15T03:37:53.002Z,97589.96
2018-05-15T03:40:21.342Z,97593.49
2018-05-15T03:42:49.638Z,97596.12
2018-05-15T03:45:17.744Z,97605.64
2018-05-15T03:47:46.851Z,97607.77
2018-05-15T03:50:15.534Z,97603.73
2018-05-15T03:52:44.551Z,97610.02
2018-05-15T03:55:12.851Z,97612.98
2018-05-15T03:57:41.146Z,97609.55
2018-05-15T04:00:26.971Z,97609.89
2018-05-15T04:03:12.955Z,97611.68
2018-05-15T04:05:58.731Z,97620.06
2018-05-15T04:08:27.030Z,97623.24
2018-05-15T04:10:55.464Z,97628.08
2018-05-15T04:13:24.838Z,97627.48
2018-05-15T04:15:54.002Z,97628.75
2018-05-15T04:18:22.722Z,97634.41
2018-05-15T04:20:51.787Z,97636.66
2018-05-15T04:23:20.172Z,97637.63
2018-05-15T04:25:48.910Z,97638.67
2018-05-15T04:28:17.346Z,97648.05
2018-05-15T04:30:47.625Z,97653.13
2018-05-15T04:33:16.315Z,97652.38
2018-05-15T04:35:44.671Z,97651.11
2018-05-15T04:38:13.747Z,97652.75
2018-05-15T04:40:42.078Z,97652.82
2018-05-15T04:43:10.366Z,97664.30
2018-05-15T04:45:38.794Z,97659.02
2018-05-15T04:48:07.344Z,97657.61
2018-05-15T04:50:35.758Z,97658.73
2018-05-15T04:53:04.053Z,97658.07
2018-05-15T04:55:32.399Z,97654.61
2018-05-15T04:58:00.692Z,97654.35
2018-05-15T05:00:28.990Z,97655.19
2018-05-15T05:02:57.815Z,97659.42
2018-05-15T05:05:26.102Z,97665.56
2018-05-15T05:07:54.397Z,97665.36
2018-05-15T05:10:22.706Z,97667.97
2018-05-15T05:12:51.060Z,97673.25
2018-05-15T05:15:19.356Z,97663.01
2018-05-15T05:17:47.651Z,97675.13
2018-05-15T05:20:15.930Z,97673.52
2018-05-15T05:22:45.183Z,97684.70
2018-05-15T05:25:14.051Z,97685.44
2018-05-15T05:27:42.344Z,97690.07
2018-05-15T05:30:10.690Z,97693.57
2018-05-15T05:32:38.979Z,97690.67
2018-05-15T05:35:07.305Z,97700.61
2018-05-15T05:37:36.494Z,97697.93
2018-05-15T05:40:04.876Z,97698.73
2018-05-15T05:42:33.087Z,97694.76
2018-05-15T05:45:02.055Z,97692.54
2018-05-15T05:47:30.347Z,97693.95
2018-05-15T05:49:59.254Z,97704.41
2018-05-15T05:52:28.432Z,97709.20
2018-05-15T05:54:56.975Z,97701.27
2018-05-15T05:57:25.318Z,97704.53
2018-05-15T05:59:54.690Z,97704.55
2018-05-15T06:02:23.004Z,97712.33
2018-05-15T06:04:51.487Z,97715.36
2018-05-15T06:07:20.410Z,97720.52
2018-05-15T06:09:48.707Z,97722.60
2018-05-15T06:12:17.099Z,97721.59
2018-05-15T06:14:45.418Z,97730.97
2018-05-15T06:17:13.707Z,97730.02
2018-05-15T06:19:42.234Z,97731.50
2018-05-15T06:22:10.830Z,97724.84
2018-05-15T06:24:39.119Z,97720.23
2018-05-15T06:27:07.454Z,97720.33
2018-05-15T06:29:35.751Z,97727.65
2018-05-15T06:32:04.294Z,97730.55
2018-05-15T06:34:33.103Z,97735.94
2018-05-15T06:37:01.338Z,97740.08
2018-05-15T06:39:29.036Z,97750.45
2018-05-15T06:41:57.674Z,97758.47
2018-05-15T06:44:26.218Z,97770.02
2018-05-15T06:46:54.507Z,97772.91
2018-05-15T06:49:23.522Z,97778.72
2018-05-15T06:51:52.026Z,97779.33
2018-05-15T06:54:20.315Z,97785.41
2018-05-15T06:56:49.046Z,97791.32
2018-05-15T06:59:18.491Z,97791.26
2018-05-15T07:01:46.153Z,97794.02
2018-05-15T07:04:14.407Z,97792.74
2018-05-15T07:06:43.354Z,97797.44
2018-05-15T07:09:11.731Z,97793.68
2018-05-15T07:11:40.029Z,97790.70
2018-05-15T07:14:08.483Z,97781.11
2018-05-15T07:16:37.811Z,97766.21
2018-05-15T07:19:06.155Z,97763.61
2018-05-15T07:21:34.455Z,97757.75
2018-05-15T07:24:03.558Z,97747.58
2018-05-15T07:26:31.843Z,97748.00
2018-05-15T07:29:00.718Z,97754.48
2018-05-15T07:31:29.074Z,97770.09
2018-05-15T07:33:57.363Z,97768.43
2018-05-15T07:36:25.655Z,97783.56
2018-05-15T07:38:53.975Z,97787.03
2018-05-15T07:41:22.390Z,97792.52
2018-05-15T07:43:50.673Z,97786.80
2018-05-15T07:46:19.002Z,97794.34
2018-05-15T07:48:47.663Z,97803.53
2018-05-15T07:51:16.191Z,97796.77
2018-05-15T07:53:44.638Z,97801.17
2018-05-15T07:56:12.822Z,97800.19
2018-05-15T07:58:41.182Z,97808.53
2018-05-15T08:01:09.523Z,97812.52
2018-05-15T08:03:37.823Z,97806.45
2018-05-15T08:06:06.117Z,97805.05
2018-05-15T08:08:34.459Z,97795.09
2018-05-15T08:11:02.722Z,97799.86
2018-05-15T08:13:31.009Z,97790.34
2018-05-15T08:15:59.370Z,97783.69
2018-05-15T08:18:27.743Z,97776.08
2018-05-15T08:20:55.982Z,97780.28
2018-05-15T08:23:24.275Z,97781.47
2018-05-15T08:25:52.568Z,97780.09
2018-05-15T08:28:20.883Z,97772.62
2018-05-15T08:30:49.252Z,97780.86
2018-05-15T08:33:17.739Z,97778.02
2018-05-15T08:35:46.567Z,97777.73
2018-05-15T08:38:15.842Z,97771.27
2018-05-15T08:40:45.081Z,97771.13
2018-05-15T08:43:13.371Z,97771.45
2018-05-15T08:45:41.666Z,97780.20
2018-05-15T08:48:10.559Z,97780.70
2018-05-15T08:50:38.970Z,97780.99
2018-05-15T08:53:08.235Z,97784.11
2018-05-15T08:55:36.601Z,97784.80
2018-05-15T08:58:04.887Z,97780.08
2018-05-15T09:00:33.176Z,97781.53
2018-05-15T09:03:01.684Z,97779.50
2018-05-15T09:05:31.247Z,97774.77
2018-05-15T09:07:59.658Z,97775.45
2018-05-15T09:10:27.967Z,97774.79
2018-05-15T09:12:56.903Z,97776.03
2018-05-15T09:15:25.422Z,97775.22
2018-05-15T09:17:53.815Z,97777.56
2018-05-15T09:20:22.871Z,97778.92
2018-05-15T09:22:51.194Z,97774.94
2018-05-15T09:25:19.485Z,97782.57
2018-05-15T09:27:47.770Z,97779.19
2018-05-15T09:30:17.295Z,97780.70
2018-05-15T09:32:45.606Z,97782.34
2018-05-15T09:35:13.895Z,97785.96
2018-05-15T09:37:42.230Z,97792.21
2018-05-15T09:40:11.218Z,97787.50
2018-05-15T09:42:39.727Z,97789.27
2018-05-15T09:45:08.891Z,97792.08
2018-05-15T09:47:37.178Z,97787.78
2018-05-15T09:50:05.466Z,97782.52
2018-05-15T09:52:34.062Z,97777.79
2018-05-15T09:55:02.737Z,97780.44
2018-05-15T09:57:31.212Z,97783.46
2018-05-15T09:59:59.507Z,97772.29
2018-05-15T10:02:28.158Z,97773.18
2018-05-15T10:04:57.701Z,97763.61
2018-05-15T10:07:27.496Z,97770.63
2018-05-15T10:09:56.034Z,97764.65
2018-05-15T10:12:24.361Z,97765.69
2018-05-15T10:14:52.651Z,97758.86
2018-05-15T10:17:20.938Z,97764.08
2018-05-15T10:19:49.274Z,97761.33
2018-05-15T10:22:17.570Z,97768.28
2018-05-15T10:24:45.862Z,97758.01
2018-05-15T10:27:14.538Z,97766.23
2018-05-15T10:29:42.939Z,97764.72
2018-05-15T10:32:11.698Z,97764.04
2018-05-15T10:34:40.117Z,97763.27
2018-05-15T10:37:09.190Z,97755.34
2018-05-15T10:39:37.506Z,97757.12
2018-05-15T10:42:05.826Z,97755.09
2018-05-15T10:44:34.131Z,97756.17
2018-05-15T10:47:02.864Z,97751.89
2018-05-15T10:49:31.237Z,97747.45
2018-05-15T10:51:59.551Z,97753.88
2018-05-15T10:54:28.443Z,97748.61
2018-05-15T10:56:56.851Z,97751.05
2018-05-15T10:59:25.173Z,97752.20
2018-05-15T11:01:54.303Z,97754.16
2018-05-15T11:04:22.663Z,97743.91
2018-05-15T11:06:52.010Z,97735.26
2018-05-15T11:09:21.873Z,97737.70
2018-05-15T11:11:50.757Z,97736.94
2018-05-15T11:14:19.486Z,97734.66
2018-05-15T11:16:47.897Z,97728.51
2018-05-15T11:19:33.650Z,97747.37
2018-05-15T11:22:19.605Z,97741.25
2018-05-15T11:24:51.619Z,97736.55
2018-05-15T11:27:19.938Z,97734.90
2018-05-15T11:29:48.562Z,97741.20
2018-05-15T11:32:16.850Z,97731.84
2018-05-15T11:34:45.719Z,97738.80
2018-05-15T11:37:14.057Z,97735.03
2018-05-15T11:39:42.669Z,97724.77
2018-05-15T11:42:11.359Z,97724.82
2018-05-15T11:44:40.354Z,97719.70
2018-05-15T11:47:08.656Z,97730.00
2018-05-15T11:49:37.840Z,97728.13
2018-05-15T11:52:06.428Z,97728.91
2018-05-15T11:54:34.095Z,97730.61
2018-05-15T11:57:02.606Z,97729.42
2018-05-15T11:59:31.653Z,97718.44
2018-05-15T12:01:59.943Z,97717.72
2018-05-15T12:04:29.031Z,97716.67
2018-05-15T12:06:57.408Z,97714.31
2018-05-15T12:09:25.695Z,97714.49
2018-05-15T12:11:54.106Z,97703.59
2018-05-15T12:14:22.655Z,97712.66
2018-05-15T12:16:51.007Z,97713.85
2018-05-15T12:19:19.298Z,97722.84
2018-05-15T12:21:47.779Z,97714.55
2018-05-15T12:24:16.637Z,97714.89
2018-05-15T12:26:44.928Z,97715.75
2018-05-15T12:29:13.251Z,97710.12
2018-05-15T12:31:41.552Z,97717.17
2018-05-15T12:34:09.860Z,97711.09
2018-05-15T12:36:38.405Z,97700.00
2018-05-15T12:39:06.691Z,97700.95
2018-05-15T12:41:35.019Z,97703.47
2018-05-15T12:44:03.364Z,97698.66
2018-05-15T12:46:31.650Z,97704.69
2018-05-15T12:49:05.682Z,97699.15
2018-05-15T12:51:34.395Z,97697.81
2018-05-15T12:54:03.495Z,97698.45
2018-05-15T12:56:33.613Z,97700.20
2018-05-15T12:59:02.191Z,97688.45
2018-05-15T13:01:30.250Z,97693.88
2018-05-15T13:03:58.580Z,97690.77
2018-05-15T13:06:26.860Z,97674.30
2018-05-15T13:08:55.329Z,97682.52
2018-05-15T13:11:23.793Z,97684.52
2018-05-15T13:13:52.838Z,97674.09
2018-05-15T13:16:21.647Z,97681.41
2018-05-15T13:18:49.968Z,97674.05
2018-05-15T13:21:18.670Z,97676.09
2018-05-15T13:23:46.950Z,97670.85
2018-05-15T13:26:15.266Z,97667.39
2018-05-15T13:28:43.552Z,97673.31
2018-05-15T13:31:11.834Z,97671.94
2018-05-15T13:33:40.315Z,97678.45
2018-05-15T13:36:09.614Z,97662.57
2018-05-15T13:38:37.901Z,97658.04
2018-05-15T13:41:07.661Z,97666.81
2018-05-15T13:43:36.139Z,97654.80
2018-05-15T13:46:04.712Z,97665.37
2018-05-15T13:48:33.226Z,97660.81
2018-05-15T13:51:02.342Z,97672.23
2018-05-15T13:53:30.626Z,97664.58
2018-05-15T13:55:59.187Z,97658.23
2018-05-15T13:58:27.706Z,97662.84
2018-05-15T14:00:55.989Z,97663.44
2018-05-15T14:03:24.322Z,97656.37
2018-05-15T14:05:52.606Z,97664.31
2018-05-15T14:08:21.290Z,97654.81
2018-05-15T14:10:50.259Z,97652.38
2018-05-15T14:13:19.279Z,97656.00
2018-05-15T14:15:47.578Z,97653.58
2018-05-15T14:18:16.671Z,97651.31
2018-05-15T14:20:45.029Z,97656.67
2018-05-15T14:23:13.313Z,97654.78
2018-05-15T14:25:42.007Z,97654.81
2018-05-15T14:28:10.582Z,97647.40
2018-05-15T14:30:39.015Z,97654.13
2018-05-15T14:33:07.354Z,97651.31
2018-05-15T14:35:36.088Z,97650.86
2018-05-15T14:38:04.380Z,97647.91
2018-05-15T14:40:32.822Z,97643.33
2018-05-15T14:43:24.766Z,97636.91
2018-05-15T14:45:53.116Z,97639.26
2018-05-15T14:48:21.403Z,97644.14
2018-05-15T15:04:39.068Z,97653.94
2018-05-15T15:07:07.606Z,97649.10
2018-05-15T15:09:36.832Z,97644.75
2018-05-15T15:12:06.226Z,97643.92
2018-05-15T15:14:34.510Z,97648.14
2018-05-15T15:17:03.210Z,97641.91
2018-05-15T15:19:31.534Z,97655.95
2018-05-15T15:21:59.822Z,97658.09
2018-05-15T15:24:28.111Z,97653.78
2018-05-15T15:26:56.441Z,97655.24
2018-05-15T15:29:24.936Z,97648.55
2018-05-15T15:31:53.423Z,97644.72
2018-05-15T15:34:21.738Z,97651.59
2018-05-15T15:36:50.018Z,97644.72
2018-05-15T15:39:18.306Z,97637.34
2018-05-15T15:41:46.969Z,97628.34
2018-05-15T15:44:15.246Z,97636.30
2018-05-15T15:46:43.527Z,97635.84
2018-05-15T15:49:12.063Z,97640.88
2018-05-15T15:51:40.818Z,97653.52
2018-05-15T15:54:09.098Z,97657.27
2018-05-15T15:56:37.739Z,97652.44
2018-05-15T15:59:06.019Z,97661.20
2018-05-15T16:01:34.798Z,97655.38
2018-05-15T16:04:03.588Z,97655.07
2018-05-15T16:06:32.468Z,97655.35
2018-05-15T16:09:00.763Z,97659.56
2018-05-15T16:11:29.069Z,97667.57
2018-05-15T16:13:57.407Z,97667.58
2018-05-15T16:16:25.703Z,97678.84
2018-05-15T16:18:54.034Z,97679.77
2018-05-15T16:21:22.743Z,97671.83
2018-05-15T16:23:51.027Z,97673.97
2018-05-15T16:26:19.390Z,97686.11
2018-05-15T16:28:47.673Z,97702.84
2018-05-15T16:31:15.973Z,97714.46
2018-05-15T16:33:44.308Z,97722.30
2018-05-15T16:36:13.090Z,97714.05
2018-05-15T16:38:41.813Z,97703.40
2018-05-15T16:41:10.530Z,97707.17
2018-05-15T16:43:38.826Z,97704.54
2018-05-15T16:46:07.238Z,97706.55
2018-05-15T16:48:36.143Z,97710.00
2018-05-15T16:51:04.436Z,97711.49
2018-05-15T16:53:32.912Z,97713.91
2018-05-15T16:56:01.295Z,97714.81
2018-05-15T16:58:29.584Z,97715.33
2018-05-15T17:00:57.878Z,97716.79
2018-05-15T17:03:26.302Z,97714.81
2018-05-15T17:05:55.143Z,97717.87
2018-05-15T17:08:23.605Z,97715.47
2018-05-15T17:10:51.947Z,97714.06
2018-05-15T17:13:20.936Z,97710.77
2018-05-15T17:15:49.642Z,97714.95
2018-05-15T17:18:17.947Z,97719.51
2018-05-15T17:20:46.235Z,97718.05
2018-05-15T17:23:15.403Z,97720.02
2018-05-15T17:25:44.453Z,97718.77
2018-05-15T17:28:13.514Z,97713.03
2018-05-15T17:30:41.847Z,97711.88
2018-05-15T17:33:10.249Z,97714.48
2018-05-15T17:35:39.127Z,97710.97
2018-05-15T17:38:07.423Z,97716.66
2018-05-15T17:40:36.090Z,97734.19
2018-05-15T17:43:04.461Z,97749.78
2018-05-15T17:45:32.742Z,97748.47
2018-05-15T17:48:01.047Z,97757.83
2018-05-15T17:50:31.443Z,97752.52
2018-05-15T17:52:59.834Z,97755.99
2018-05-15T17:55:28.226Z,97752.30
2018-05-15T17:57:56.902Z,97758.87
2018-05-15T18:00:26.031Z,97759.90
2018-05-15T18:02:55.283Z,97762.97
2018-05-15T18:05:24.382Z,97764.17
2018-05-15T18:07:52.657Z,97764.48
2018-05-15T18:10:21.202Z,97758.88
2018-05-15T18:12:49.791Z,97771.38
2018-05-15T18:15:18.865Z,97785.41
2018-05-15T18:17:47.135Z,97792.28
2018-05-15T18:20:15.751Z,97787.71
2018-05-15T18:22:44.190Z,97780.45
2018-05-15T18:25:12.526Z,97785.88
2018-05-15T18:27:40.854Z,97787.71
2018-05-15T18:30:09.783Z,97790.45
2018-05-15T18:32:38.476Z,97796.08
2018-05-15T18:35:07.744Z,97794.48
2018-05-15T18:37:36.098Z,97796.23
2018-05-15T18:40:04.896Z,97802.81
2018-05-15T18:42:33.359Z,97805.45
2018-05-15T18:45:01.757Z,97811.46
2018-05-15T18:47:29.819Z,97814.59
2018-05-15T18:49:59.325Z,97823.48
2018-05-15T18:52:28.072Z,97829.30
2018-05-15T18:54:56.506Z,97833.09
2018-05-15T18:57:24.952Z,97829.21
2018-05-15T18:59:53.261Z,97831.89
2018-05-15T19:02:21.676Z,97837.97
2018-05-15T19:04:49.991Z,97844.56
2018-05-15T19:07:18.274Z,97840.45
2018-05-15T19:09:46.579Z,97846.05
2018-05-15T19:12:14.959Z,97845.62
2018-05-15T19:14:45.215Z,97844.14
2018-05-15T19:17:14.283Z,97848.30
2018-05-15T19:19:42.659Z,97852.72
2018-05-15T19:22:11.222Z,97854.33
2018-05-15T19:24:39.506Z,97863.88
2018-05-15T19:27:07.842Z,97874.84
2018-05-15T19:29:36.157Z,97882.09
2018-05-15T19:32:10.654Z,97882.09
2018-05-15T19:48:00.137Z,97893.20
2018-05-15T19:50:28.424Z,97900.60
2018-05-15T19:52:57.130Z,97894.02
2018-05-15T19:55:25.763Z,97888.27
2018-05-15T19:57:54.050Z,97891.92
2018-05-15T20:00:22.414Z,97895.67
2018-05-15T20:02:50.781Z,97897.34
2018-05-15T20:05:19.700Z,97895.80
2018-05-15T20:07:48.049Z,97904.36
2018-05-15T20:10:16.363Z,97906.45
2018-05-15T20:12:44.647Z,97904.86
2018-05-15T20:15:12.923Z,97905.87
2018-05-15T20:17:41.248Z,97912.47
2018-05-15T20:20:10.414Z,97907.47
2018-05-15T20:22:39.783Z,97911.11
2018-05-15T20:25:09.275Z,97911.38
2018-05-15T20:27:37.555Z,97909.45
2018-05-15T20:30:06.218Z,97913.16
2018-05-15T20:32:35.712Z,97909.41
2018-05-15T20:35:04.075Z,97907.89
2018-05-15T20:37:32.965Z,97914.33
2018-05-15T20:40:02.078Z,97913.13
2018-05-15T20:42:31.254Z,97917.05
2018-05-15T20:44:59.600Z,97915.38
2018-05-15T20:47:27.946Z,97919.98
2018-05-15T20:49:56.439Z,97916.73
2018-05-15T20:52:24.758Z,97914.13
2018-05-15T20:54:54.451Z,97912.86
2018-05-15T20:57:23.316Z,97914.64
2018-05-15T20:59:51.674Z,97915.69
2018-05-15T21:02:20.220Z,97915.26
2018-05-15T21:04:49.158Z,97920.64
2018-05-15T21:07:17.677Z,97917.34
2018-05-15T21:09:46.031Z,97916.23
2018-05-15T21:12:14.912Z,97920.69
2018-05-15T21:14:44.154Z,97916.64
2018-05-15T21:17:12.643Z,97918.00
2018-05-15T21:19:41.663Z,97913.81
2018-05-15T21:22:10.499Z,97914.56
2018-05-15T21:24:38.815Z,97909.27
2018-05-15T21:27:07.978Z,97912.27
2018-05-15T21:29:36.311Z,97912.05
2018-05-15T21:32:04.768Z,97910.52
2018-05-15T21:34:33.418Z,97915.43
2018-05-15T21:37:01.751Z,97907.64
2018-05-15T21:39:30.163Z,97916.22
2018-05-15T21:41:59.051Z,97913.00
2018-05-15T21:44:27.379Z,97913.48
2018-05-15T21:46:55.671Z,97914.73
2018-05-15T21:49:23.976Z,97918.19
2018-05-15T21:51:52.656Z,97919.63
2018-05-15T21:54:20.951Z,97918.19
2018-05-15T21:56:49.240Z,97921.32
2018-05-15T21:59:18.750Z,97921.97
2018-05-15T22:01:47.822Z,97927.58
2018-05-15T22:04:16.607Z,97926.24
2018-05-15T22:06:45.679Z,97929.03
2018-05-15T22:09:16.084Z,97925.88
2018-05-15T22:12:02.235Z,97916.65
2018-05-15T22:14:48.675Z,97918.70
2018-05-15T22:17:34.873Z,97919.61
2018-05-15T22:20:22.115Z,97922.45
2018-05-15T22:22:49.662Z,97917.34
2018-05-15T22:25:18.019Z,97918.57
2018-05-15T22:27:46.438Z,97918.66
2018-05-15T22:30:14.784Z,97922.13
2018-05-15T22:32:44.160Z,97922.86
2018-05-15T22:35:12.451Z,97918.73
2018-05-15T22:37:41.654Z,97916.31
2018-05-15T22:40:10.589Z,97916.27
2018-05-15T22:42:39.029Z,97918.72
2018-05-15T22:45:07.906Z,97921.16
2018-05-15T22:47:36.234Z,97924.52
2018-05-15T22:50:04.671Z,97924.12
2018-05-15T22:52:33.773Z,97923.02
2018-05-15T22:55:02.655Z,97920.09
2018-05-15T22:57:31.291Z,97915.73
2018-05-15T23:00:00.632Z,97913.33
2018-05-15T23:02:29.379Z,97912.02
2018-05-15T23:04:58.274Z,97903.39
2018-05-15T23:07:26.559Z,97899.28
2018-05-15T23:09:54.887Z,97903.64
2018-05-15T23:12:23.166Z,97910.31
2018-05-15T23:14:52.163Z,97905.02
2018-05-15T23:17:20.466Z,97903.52
2018-05-15T23:19:48.898Z,97906.86
2018-05-15T23:22:35.264Z,97902.42
2018-05-15T23:25:03.559Z,97904.89
2018-05-15T23:27:31.883Z,97908.00
2018-05-15T23:30:00.176Z,97904.39
2018-05-15T23:32:28.486Z,97904.72
2018-05-15T23:34:56.778Z,97905.71
2018-05-15T23:37:27.139Z,97903.89
2018-05-15T23:39:55.590Z,97901.89
2018-05-15T23:42:23.913Z,97901.22
2018-05-15T23:44:52.790Z,97900.38
2018-05-15T23:47:21.179Z,97893.30
2018-05-15T23:49:49.568Z,97892.61
2018-05-15T23:52:17.899Z,97896.68
2018-05-15T23:54:46.186Z,97899.11
2018-05-15T23:57:14.478Z,97891.06
2018-05-15T23:59:42.923Z,97900.56
